Time;durP1;ratioP1;P1;durP2;ratioP2;P2;SDS_P1;SDS_P2;PMS_P1;PMS_P2;Temp;Humidity;BMP_temperature;BMP_pressure;BME280_temperature;BME280_humidity;BME280_pressure;Samples;Min_cycle;Max_cycle;Signal;HPM_P1;HPM_P2
2023/10/19 00:00:45;;;;;;;24.98;12.75;;;8.80;99.90;;;;;;5101495;28;20024;-75
2023/10/19 00:03:12;;;;;;;26.73;12.23;;;8.80;99.90;;;;;;5101688;28;20095;-73
2023/10/19 00:05:39;;;;;;;23.15;11.15;;;8.80;99.90;;;;;;5102078;28;20046;-73
2023/10/19 00:08:22;;;;;;;23.77;12.68;;;8.80;99.90;;;;;;5102545;28;20023;-76
2023/10/19 00:11:08;;;;;;;26.20;12.57;;;8.80;99.90;;;;;;5102092;28;20024;-74
2023/10/19 00:13:37;;;;;;;23.00;12.40;;;8.70;99.90;;;;;;5103364;28;20015;-76
2023/10/19 00:16:13;;;;;;;25.38;12.63;;;8.80;99.90;;;;;;5100595;28;20069;-77
2023/10/19 00:18:43;;;;;;;22.15;13.27;;;8.70;99.90;;;;;;5099228;28;20042;-77
2023/10/19 00:23:39;;;;;;;22.90;12.70;;;8.80;99.90;;;;;;5101221;28;20083;-74
2023/10/19 00:26:09;;;;;;;25.30;13.48;;;8.70;99.90;;;;;;5100701;28;20012;-75
2023/10/19 00:28:38;;;;;;;27.15;14.70;;;8.60;99.90;;;;;;5102120;28;20746;-74
2023/10/19 00:31:07;;;;;;;27.08;14.10;;;8.50;99.90;;;;;;5100307;28;20032;-73
2023/10/19 00:33:39;;;;;;;27.88;14.10;;;8.50;99.90;;;;;;5096326;28;20099;-73
2023/10/19 00:36:15;;;;;;;26.17;14.18;;;8.50;99.90;;;;;;5097022;28;20024;-73
2023/10/19 00:38:56;;;;;;;28.40;14.82;;;8.40;99.90;;;;;;5102894;28;20031;-73
2023/10/19 00:41:27;;;;;;;26.88;15.20;;;8.30;99.90;;;;;;5101187;28;20048;-75
2023/10/19 00:44:17;;;;;;;27.13;14.32;;;8.30;99.90;;;;;;5102538;28;20026;-77
2023/10/19 00:49:15;;;;;;;28.52;15.30;;;8.30;99.90;;;;;;5102860;28;20098;-75
2023/10/19 00:54:36;;;;;;;26.52;14.07;;;8.20;99.90;;;;;;5100577;28;20485;-74
2023/10/19 00:57:12;;;;;;;28.45;15.43;;;8.10;99.90;;;;;;5101836;28;20024;-74
2023/10/19 00:59:48;;;;;;;28.38;15.68;;;8.10;99.90;;;;;;5101087;28;20024;-75
2023/10/19 01:02:17;;;;;;;28.95;15.30;;;8.00;99.90;;;;;;5097800;28;20397;-75
2023/10/19 01:04:45;;;;;;;32.00;16.48;;;8.00;99.90;;;;;;5100137;28;20045;-75
2023/10/19 01:07:15;;;;;;;32.28;16.38;;;8.00;99.90;;;;;;5101198;28;20016;-75
2023/10/19 01:09:43;;;;;;;33.92;17.55;;;7.90;99.90;;;;;;5101043;28;20086;-75
2023/10/19 01:12:25;;;;;;;37.63;18.13;;;8.00;99.90;;;;;;5101222;28;20012;-74
2023/10/19 01:15:13;;;;;;;37.42;18.15;;;7.90;99.90;;;;;;5101966;28;20051;-73
2023/10/19 01:17:43;;;;;;;35.65;18.27;;;7.90;99.90;;;;;;5100463;28;20020;-74
2023/10/19 01:20:22;;;;;;;36.17;18.05;;;7.90;99.90;;;;;;5103483;28;20020;-73
2023/10/19 01:33:56;;;;;;;38.75;19.13;;;7.80;99.90;;;;;;5102635;28;20032;-76
2023/10/19 01:38:54;;;;;;;39.03;19.60;;;7.80;99.90;;;;;;5104982;28;20025;-76
2023/10/19 01:41:21;;;;;;;37.13;19.58;;;7.80;99.90;;;;;;5102449;28;20038;-79
2023/10/19 01:43:50;;;;;;;39.20;19.10;;;7.80;99.90;;;;;;5101732;28;20095;-77
2023/10/19 01:46:33;;;;;;;43.08;20.08;;;7.70;99.90;;;;;;5100391;28;20526;-77
2023/10/19 01:49:03;;;;;;;39.40;21.15;;;7.70;99.90;;;;;;5100342;28;20028;-76
2023/10/19 01:51:32;;;;;;;41.70;21.08;;;7.90;99.90;;;;;;5102383;28;20055;-77
2023/10/19 01:54:00;;;;;;;42.20;21.17;;;7.70;99.90;;;;;;5103684;28;20020;-76
2023/10/19 01:56:26;;;;;;;42.05;21.08;;;7.70;99.90;;;;;;5098828;28;20052;-76
2023/10/19 01:58:54;;;;;;;43.75;22.48;;;7.70;99.90;;;;;;5101641;28;20036;-74
2023/10/19 02:01:28;;;;;;;41.70;21.10;;;7.70;99.90;;;;;;5103429;28;20032;-74
2023/10/19 02:03:59;;;;;;;42.78;22.20;;;7.80;99.90;;;;;;5100778;28;20016;-74
2023/10/19 02:06:37;;;;;;;40.47;20.80;;;7.80;99.90;;;;;;5102193;28;20086;-77
2023/10/19 02:09:09;;;;;;;44.35;21.95;;;7.70;99.90;;;;;;5101922;28;20025;-76
2023/10/19 02:11:41;;;;;;;49.65;21.58;;;7.70;99.90;;;;;;5103054;28;20016;-77
2023/10/19 02:14:13;;;;;;;42.30;21.15;;;7.60;99.90;;;;;;5103808;28;20078;-77
2023/10/19 02:16:51;;;;;;;52.20;22.38;;;7.60;99.90;;;;;;5101392;28;20012;-77
2023/10/19 02:19:17;;;;;;;44.10;22.60;;;7.60;99.90;;;;;;5104593;28;20028;-78
2023/10/19 02:21:47;;;;;;;42.20;21.83;;;7.60;99.90;;;;;;5104809;28;20047;-77
2023/10/19 02:24:15;;;;;;;41.33;21.58;;;7.50;99.90;;;;;;5103655;28;20024;-75
2023/10/19 02:26:42;;;;;;;48.20;22.40;;;7.50;99.90;;;;;;5103324;28;20080;-77
2023/10/19 02:29:09;;;;;;;43.65;22.08;;;7.50;99.90;;;;;;5099720;28;20072;-76
2023/10/19 02:31:39;;;;;;;53.08;23.30;;;7.50;99.90;;;;;;5103730;28;20031;-76
2023/10/19 02:34:07;;;;;;;48.05;24.15;;;7.50;99.90;;;;;;5103731;28;20028;-76
2023/10/19 02:36:33;;;;;;;56.42;23.77;;;7.50;99.90;;;;;;5100082;28;20020;-74
2023/10/19 02:39:07;;;;;;;44.45;23.55;;;7.30;99.90;;;;;;5101649;28;20110;-77
2023/10/19 02:41:37;;;;;;;49.35;24.15;;;7.40;99.90;;;;;;5100562;28;20101;-77
2023/10/19 02:46:30;;;;;;;54.10;24.33;;;7.40;99.90;;;;;;5101892;28;20028;-76
2023/10/19 02:48:56;;;;;;;53.60;24.25;;;7.40;99.90;;;;;;5100230;28;20025;-75
2023/10/19 02:51:22;;;;;;;49.72;24.10;;;7.40;99.90;;;;;;5099515;28;20389;-76
2023/10/19 02:53:48;;;;;;;46.95;23.85;;;7.40;99.90;;;;;;5104219;28;20053;-75
2023/10/19 02:56:19;;;;;;;56.28;25.30;;;7.30;99.90;;;;;;5103878;28;20044;-76
2023/10/19 02:58:48;;;;;;;51.97;25.45;;;7.30;99.90;;;;;;5102407;28;20020;-72
2023/10/19 03:01:22;;;;;;;45.70;23.75;;;7.30;99.90;;;;;;5101869;28;20100;-75
2023/10/19 03:03:53;;;;;;;48.15;24.52;;;7.40;99.90;;;;;;5101876;28;20032;-77
2023/10/19 03:06:20;;;;;;;50.22;24.50;;;7.30;99.90;;;;;;5102270;28;20027;-73
2023/10/19 03:08:47;;;;;;;57.78;27.35;;;7.30;99.90;;;;;;5102760;28;20024;-75
2023/10/19 03:11:16;;;;;;;52.10;25.13;;;7.30;99.90;;;;;;5100913;28;20095;-75
2023/10/19 03:13:43;;;;;;;52.70;25.98;;;7.30;99.90;;;;;;5102130;28;20016;-75
2023/10/19 03:16:08;;;;;;;58.40;26.70;;;7.40;99.90;;;;;;5100338;28;20066;-73
2023/10/19 03:18:35;;;;;;;54.97;26.83;;;7.30;99.90;;;;;;5101818;28;20032;-74
2023/10/19 03:21:04;;;;;;;56.60;26.63;;;7.30;99.90;;;;;;5099369;28;20027;-73
2023/10/19 03:23:34;;;;;;;56.70;26.48;;;7.30;99.90;;;;;;5098972;28;20031;-74
2023/10/19 03:26:22;;;;;;;56.00;25.80;;;7.30;99.90;;;;;;5102736;28;20024;-73
2023/10/19 03:28:56;;;;;;;54.00;25.10;;;7.40;99.90;;;;;;5101603;28;20024;-73
2023/10/19 03:31:25;;;;;;;59.22;25.85;;;7.30;99.90;;;;;;5104355;28;20027;-73
2023/10/19 03:33:54;;;;;;;58.65;25.52;;;7.30;99.90;;;;;;5103590;28;20024;-72
2023/10/19 03:36:23;;;;;;;53.47;25.98;;;7.30;99.90;;;;;;5102622;28;20448;-73
2023/10/19 03:38:53;;;;;;;59.60;26.92;;;7.30;99.90;;;;;;5103589;28;20026;-74
2023/10/19 03:41:21;;;;;;;56.75;26.27;;;7.30;99.90;;;;;;5103205;28;20091;-75
2023/10/19 03:43:52;;;;;;;55.05;26.67;;;7.40;99.90;;;;;;5103835;28;20123;-75
2023/10/19 03:46:28;;;;;;;60.42;26.20;;;7.20;99.90;;;;;;5104057;28;20050;-75
2023/10/19 03:48:59;;;;;;;58.00;25.58;;;7.30;99.90;;;;;;5102887;28;20081;-73
2023/10/19 03:51:39;;;;;;;60.75;26.10;;;7.30;99.90;;;;;;5102575;28;20092;-73
2023/10/19 03:54:13;;;;;;;54.85;26.75;;;7.40;99.90;;;;;;5101973;28;20022;-73
2023/10/19 03:56:38;;;;;;;64.95;28.00;;;7.30;99.90;;;;;;5102062;28;20052;-72
2023/10/19 03:59:05;;;;;;;59.17;27.90;;;7.20;99.90;;;;;;5103054;28;20032;-72
2023/10/19 04:01:31;;;;;;;65.43;27.88;;;7.30;99.90;;;;;;5099377;28;20058;-74
2023/10/19 04:03:57;;;;;;;71.68;29.30;;;7.30;99.90;;;;;;5103628;28;20020;-72
2023/10/19 04:06:23;;;;;;;61.03;28.00;;;7.30;99.90;;;;;;5103235;28;20020;-74
2023/10/19 04:08:50;;;;;;;59.80;27.92;;;7.30;99.90;;;;;;5102734;28;20056;-73
2023/10/19 04:11:23;;;;;;;64.05;28.65;;;7.20;99.90;;;;;;5103176;28;20024;-74
2023/10/19 04:13:52;;;;;;;69.05;28.95;;;7.20;99.90;;;;;;5103713;28;20028;-72
2023/10/19 04:16:20;;;;;;;65.65;29.45;;;7.20;99.90;;;;;;5100464;28;20044;-74
2023/10/19 04:18:45;;;;;;;67.07;29.10;;;7.20;99.90;;;;;;5101633;28;20032;-71
2023/10/19 04:21:11;;;;;;;73.47;30.75;;;7.20;99.90;;;;;;5103189;28;20036;-72
2023/10/19 04:23:37;;;;;;;64.20;28.75;;;7.20;99.90;;;;;;5094168;28;20024;-72
2023/10/19 04:26:10;;;;;;;62.03;29.63;;;7.30;99.90;;;;;;5096773;28;20028;-73
2023/10/19 04:28:49;;;;;;;60.83;28.85;;;7.30;99.90;;;;;;5100346;28;20081;-72
2023/10/19 04:31:19;;;;;;;60.00;29.02;;;7.20;99.90;;;;;;5099631;28;20053;-73
2023/10/19 04:33:45;;;;;;;65.28;29.48;;;7.20;99.90;;;;;;5100815;28;20049;-72
2023/10/19 04:36:15;;;;;;;68.88;28.60;;;7.20;99.90;;;;;;5094789;28;20016;-71
2023/10/19 04:38:41;;;;;;;65.68;29.98;;;7.20;99.90;;;;;;5099836;28;20411;-72
2023/10/19 04:41:10;;;;;;;59.05;27.50;;;7.20;99.90;;;;;;5102566;28;20039;-71
2023/10/19 04:43:37;;;;;;;61.45;28.35;;;7.20;99.90;;;;;;5095803;28;20024;-70
2023/10/19 04:46:11;;;;;;;61.95;27.95;;;7.20;99.90;;;;;;5099030;28;20024;-70
2023/10/19 04:48:40;;;;;;;61.70;29.05;;;7.30;99.90;;;;;;5099268;28;20463;-71
2023/10/19 04:51:07;;;;;;;64.05;29.13;;;7.20;99.90;;;;;;5100276;28;20059;-73
2023/10/19 04:53:32;;;;;;;66.68;30.00;;;7.20;99.90;;;;;;5103067;28;20047;-71
2023/10/19 04:56:00;;;;;;;66.70;30.00;;;7.20;99.90;;;;;;5103454;28;20519;-72
2023/10/19 04:58:27;;;;;;;68.18;30.08;;;7.20;99.90;;;;;;5104891;28;20085;-70
2023/10/19 05:00:53;;;;;;;59.58;28.60;;;7.20;99.90;;;;;;5104792;28;20054;-70
2023/10/19 05:03:18;;;;;;;62.28;28.95;;;7.20;99.90;;;;;;5107391;28;20028;-72
2023/10/19 05:05:45;;;;;;;69.40;30.27;;;7.20;99.90;;;;;;5106361;28;20027;-72
2023/10/19 05:08:11;;;;;;;57.67;26.38;;;7.20;99.90;;;;;;5106838;28;20024;-74
2023/10/19 05:10:37;;;;;;;63.40;28.92;;;7.20;99.90;;;;;;5105575;28;20066;-73
2023/10/19 05:13:03;;;;;;;65.68;29.92;;;7.20;99.90;;;;;;5105652;28;20020;-70
2023/10/19 05:15:29;;;;;;;71.20;30.90;;;7.20;99.90;;;;;;5106053;28;20039;-74
2023/10/19 05:17:54;;;;;;;65.90;30.60;;;7.30;99.90;;;;;;5106370;28;20113;-72
2023/10/19 05:20:21;;;;;;;63.95;30.88;;;7.20;99.90;;;;;;5105491;28;20024;-71
2023/10/19 05:22:47;;;;;;;70.90;31.25;;;7.30;99.90;;;;;;5106576;28;20055;-72
2023/10/19 05:25:13;;;;;;;76.38;31.27;;;7.30;99.90;;;;;;5105828;28;20036;-72
2023/10/19 05:27:39;;;;;;;63.78;29.88;;;7.30;99.90;;;;;;5106578;28;20020;-72
2023/10/19 05:30:10;;;;;;;71.18;30.27;;;7.30;99.90;;;;;;5106862;28;20024;-72
2023/10/19 05:32:35;;;;;;;71.82;30.98;;;7.30;99.90;;;;;;5103129;28;20027;-73
2023/10/19 05:35:04;;;;;;;71.50;31.02;;;7.30;99.90;;;;;;5106412;28;20032;-72
2023/10/19 05:37:30;;;;;;;71.88;30.35;;;7.30;99.90;;;;;;5106896;28;20024;-72
2023/10/19 05:39:56;;;;;;;67.85;29.75;;;7.40;99.90;;;;;;5104850;28;20016;-70
2023/10/19 05:42:22;;;;;;;69.25;31.15;;;7.30;99.90;;;;;;5104688;28;20044;-73
2023/10/19 05:44:47;;;;;;;72.25;30.95;;;7.30;99.90;;;;;;5106317;28;20016;-72
2023/10/19 05:47:13;;;;;;;62.88;30.23;;;7.30;99.90;;;;;;5106274;28;20024;-73
2023/10/19 05:49:38;;;;;;;60.95;29.83;;;7.30;99.90;;;;;;5106194;28;20137;-72
2023/10/19 05:52:04;;;;;;;63.17;28.23;;;7.30;99.90;;;;;;5106046;28;20503;-71
2023/10/19 05:54:30;;;;;;;64.10;29.02;;;7.30;99.90;;;;;;5102837;28;20108;-72
2023/10/19 05:56:56;;;;;;;69.70;29.45;;;7.20;99.90;;;;;;5104903;28;20052;-72
2023/10/19 05:59:23;;;;;;;67.00;29.75;;;7.30;99.90;;;;;;5105475;28;20110;-71
2023/10/19 06:01:49;;;;;;;62.78;28.65;;;7.30;99.90;;;;;;5105775;28;20035;-73
2023/10/19 06:04:14;;;;;;;63.35;27.48;;;7.30;99.90;;;;;;5104978;28;20027;-72
2023/10/19 06:06:40;;;;;;;57.95;27.17;;;7.30;99.90;;;;;;5102519;28;20429;-73
2023/10/19 06:09:08;;;;;;;62.20;28.70;;;7.30;99.90;;;;;;5098753;28;20119;-70
2023/10/19 06:11:37;;;;;;;59.65;27.90;;;7.30;99.90;;;;;;5100035;28;20020;-71
2023/10/19 06:14:06;;;;;;;58.00;27.23;;;7.40;99.90;;;;;;5103354;28;20028;-73
2023/10/19 06:16:33;;;;;;;57.17;26.35;;;7.30;99.90;;;;;;5103517;28;20016;-73
2023/10/19 06:18:58;;;;;;;59.08;26.70;;;7.30;99.90;;;;;;5105492;28;20028;-75
2023/10/19 06:21:24;;;;;;;57.60;25.90;;;7.30;99.90;;;;;;5104091;28;20028;-72
2023/10/19 06:23:50;;;;;;;49.88;24.98;;;7.30;99.90;;;;;;5103723;28;20158;-73
2023/10/19 06:26:16;;;;;;;46.75;23.63;;;7.20;99.90;;;;;;5102795;28;20031;-72
2023/10/19 06:28:42;;;;;;;50.50;23.92;;;7.30;99.90;;;;;;5103514;28;20043;-72
2023/10/19 06:31:08;;;;;;;49.05;24.10;;;7.20;99.90;;;;;;5101851;28;20027;-73
2023/10/19 06:33:34;;;;;;;47.47;23.00;;;7.20;99.90;;;;;;5104443;28;20358;-72
2023/10/19 06:36:03;;;;;;;45.40;22.30;;;7.20;99.90;;;;;;5104312;28;20020;-74
2023/10/19 06:38:31;;;;;;;54.05;24.17;;;7.30;99.90;;;;;;5103462;28;20031;-72
2023/10/19 06:40:57;;;;;;;47.35;21.98;;;7.20;99.90;;;;;;5097967;28;20028;-73
2023/10/19 06:43:23;;;;;;;45.85;21.42;;;7.20;99.90;;;;;;5103332;28;20016;-72
2023/10/19 06:45:50;;;;;;;47.97;22.70;;;7.20;99.90;;;;;;5103638;28;20028;-73
2023/10/19 06:48:15;;;;;;;49.28;22.27;;;7.20;99.90;;;;;;5103750;28;20080;-72
2023/10/19 06:50:41;;;;;;;46.13;21.83;;;7.20;99.90;;;;;;5105141;28;20020;-73
2023/10/19 06:53:06;;;;;;;49.13;21.65;;;7.20;99.90;;;;;;5098482;28;20038;-71
2023/10/19 06:55:32;;;;;;;41.63;20.48;;;7.20;99.90;;;;;;5101758;28;20083;-73
2023/10/19 06:57:59;;;;;;;40.85;20.38;;;7.20;99.90;;;;;;5097906;28;20028;-70
2023/10/19 07:00:28;;;;;;;45.10;20.60;;;7.20;99.90;;;;;;5097999;28;20036;-71
2023/10/19 07:02:56;;;;;;;44.53;20.63;;;7.20;99.90;;;;;;5103863;28;20484;-72
2023/10/19 07:05:29;;;;;;;41.47;19.80;;;7.20;99.90;;;;;;5103098;28;20110;-72
2023/10/19 07:07:56;;;;;;;44.28;20.90;;;7.30;99.90;;;;;;5098577;28;20016;-71
2023/10/19 07:10:23;;;;;;;43.38;21.38;;;7.20;99.90;;;;;;5100732;28;20043;-72
2023/10/19 07:12:53;;;;;;;43.65;21.30;;;7.20;99.90;;;;;;5097920;28;20038;-73
2023/10/19 07:15:19;;;;;;;43.55;21.13;;;7.20;99.90;;;;;;5102684;28;20027;-73
2023/10/19 07:17:46;;;;;;;44.65;20.88;;;7.20;99.90;;;;;;5097801;28;21076;-72
2023/10/19 07:20:25;;;;;;;42.90;21.08;;;7.20;99.90;;;;;;5104374;28;20020;-73
2023/10/19 07:22:59;;;;;;;44.92;20.77;;;7.20;99.90;;;;;;5096397;28;20096;-71
2023/10/19 07:25:25;;;;;;;40.13;20.08;;;7.20;99.90;;;;;;5101753;28;20021;-72
2023/10/19 07:27:52;;;;;;;44.78;20.92;;;7.20;99.90;;;;;;5102761;28;20028;-71
2023/10/19 07:30:26;;;;;;;41.22;21.13;;;7.30;99.90;;;;;;5101947;28;20024;-70
2023/10/19 07:32:58;;;;;;;40.50;20.90;;;7.30;99.90;;;;;;5103009;28;20019;-71
2023/10/19 07:35:27;;;;;;;38.03;19.48;;;7.30;99.90;;;;;;5103703;28;20026;-74
2023/10/19 07:37:56;;;;;;;37.60;18.75;;;7.30;99.90;;;;;;5099242;28;20093;-71
2023/10/19 07:40:23;;;;;;;38.45;18.23;;;7.30;99.90;;;;;;5097871;28;20016;-73
2023/10/19 07:42:51;;;;;;;34.38;17.58;;;7.30;99.90;;;;;;5100786;28;20055;-73
2023/10/19 07:45:17;;;;;;;35.10;17.42;;;7.40;99.90;;;;;;5099958;28;20380;-72
2023/10/19 07:47:44;;;;;;;36.25;17.73;;;7.40;99.90;;;;;;5101518;28;20016;-72
2023/10/19 07:50:15;;;;;;;33.60;17.27;;;7.40;99.90;;;;;;5101064;28;20016;-72
2023/10/19 07:52:49;;;;;;;32.22;16.23;;;7.30;99.90;;;;;;5100552;28;20016;-76
2023/10/19 07:55:16;;;;;;;34.70;17.97;;;7.40;99.90;;;;;;5101312;28;20038;-71
2023/10/19 07:57:42;;;;;;;32.33;17.25;;;7.40;99.90;;;;;;5097635;28;20286;-73
2023/10/19 08:00:09;;;;;;;33.63;17.90;;;7.40;99.90;;;;;;5102523;28;20024;-71
2023/10/19 08:02:40;;;;;;;33.22;17.30;;;7.40;99.90;;;;;;5101322;28;20058;-72
2023/10/19 08:05:06;;;;;;;35.50;16.95;;;7.40;99.90;;;;;;5102837;28;20016;-73
2023/10/19 08:07:34;;;;;;;33.33;17.55;;;7.40;99.90;;;;;;5098536;28;20024;-72
2023/10/19 08:10:00;;;;;;;32.80;17.27;;;7.40;99.90;;;;;;5098067;28;20020;-71
2023/10/19 08:12:26;;;;;;;37.58;18.80;;;7.40;99.90;;;;;;5102026;28;20036;-72
2023/10/19 08:14:53;;;;;;;35.13;18.73;;;7.40;99.90;;;;;;5103244;28;20063;-72
2023/10/19 08:17:18;;;;;;;37.67;18.48;;;7.50;99.90;;;;;;5103403;28;20444;-72
2023/10/19 08:19:45;;;;;;;36.25;18.77;;;7.40;99.90;;;;;;5100407;28;21372;-72
2023/10/19 08:22:10;;;;;;;34.83;18.10;;;7.50;99.90;;;;;;5101468;28;20027;-72
2023/10/19 08:24:36;;;;;;;36.05;18.70;;;7.50;99.90;;;;;;5102042;28;20111;-73
2023/10/19 08:27:05;;;;;;;37.42;18.08;;;7.50;99.90;;;;;;5101794;28;20173;-72
2023/10/19 08:29:31;;;;;;;36.97;18.23;;;7.50;99.90;;;;;;5101820;28;20028;-70
2023/10/19 08:31:57;;;;;;;34.28;17.35;;;7.60;99.90;;;;;;5102923;28;20513;-71
2023/10/19 08:34:25;;;;;;;34.00;17.85;;;7.50;99.90;;;;;;5102065;28;20020;-72
2023/10/19 08:36:51;;;;;;;32.58;17.35;;;7.60;99.90;;;;;;5101706;28;20025;-72
2023/10/19 08:39:17;;;;;;;36.30;18.55;;;7.70;99.90;;;;;;5102676;28;20024;-72
2023/10/19 08:41:43;;;;;;;32.83;17.48;;;7.60;99.90;;;;;;5100660;28;20044;-74
2023/10/19 08:44:13;;;;;;;30.50;16.63;;;7.70;99.90;;;;;;5100452;28;20075;-71
2023/10/19 08:46:43;;;;;;;32.45;17.52;;;7.70;99.90;;;;;;5102092;28;20085;-72
2023/10/19 08:49:12;;;;;;;29.80;15.65;;;7.70;99.90;;;;;;5101970;28;20028;-70
2023/10/19 08:51:39;;;;;;;31.45;16.10;;;7.70;99.90;;;;;;5103042;28;20024;-71
2023/10/19 08:54:10;;;;;;;32.95;16.33;;;7.60;99.90;;;;;;5102283;28;20084;-73
2023/10/19 08:56:36;;;;;;;29.02;14.90;;;7.70;99.90;;;;;;5101814;28;20028;-72
2023/10/19 08:59:02;;;;;;;30.13;16.00;;;7.70;99.90;;;;;;5102163;28;20034;-72
2023/10/19 09:01:28;;;;;;;26.50;14.95;;;7.70;99.90;;;;;;5101760;28;20036;-73
2023/10/19 09:04:00;;;;;;;28.35;14.38;;;7.70;99.90;;;;;;5101074;28;20050;-73
2023/10/19 09:06:28;;;;;;;27.63;14.55;;;7.70;99.90;;;;;;5102019;28;20028;-70
2023/10/19 09:09:01;;;;;;;27.90;14.55;;;7.70;99.90;;;;;;5100742;28;20016;-72
2023/10/19 09:11:26;;;;;;;28.60;14.88;;;7.70;99.90;;;;;;5103114;28;20013;-71
2023/10/19 09:13:52;;;;;;;24.40;13.52;;;7.70;99.90;;;;;;5101314;28;20127;-72
2023/10/19 09:16:20;;;;;;;24.05;13.23;;;7.70;99.90;;;;;;5102417;28;20020;-73
2023/10/19 09:18:47;;;;;;;22.38;12.90;;;7.70;99.90;;;;;;5102120;28;20073;-72
2023/10/19 09:21:25;;;;;;;25.40;13.50;;;7.70;99.90;;;;;;5096389;28;20020;-73
2023/10/19 09:23:56;;;;;;;25.33;12.85;;;7.80;99.90;;;;;;5101344;28;20028;-72
2023/10/19 09:26:23;;;;;;;24.17;12.82;;;7.70;99.90;;;;;;5102615;28;20188;-73
2023/10/19 09:28:50;;;;;;;21.83;12.05;;;7.70;99.90;;;;;;5100939;28;20112;-71
2023/10/19 09:31:16;;;;;;;24.55;12.35;;;7.70;99.90;;;;;;5098537;28;20412;-72
2023/10/19 09:33:44;;;;;;;21.42;11.65;;;7.70;99.90;;;;;;5101385;28;20038;-73
2023/10/19 09:36:14;;;;;;;19.65;11.15;;;7.70;99.90;;;;;;5101435;28;20020;-75
2023/10/19 09:38:51;;;;;;;22.05;12.40;;;7.70;99.90;;;;;;5098136;28;20467;-72
2023/10/19 09:41:28;;;;;;;17.50;10.55;;;7.70;99.90;;;;;;5106332;28;20024;-72
2023/10/19 09:44:00;;;;;;;20.73;10.57;;;7.80;99.90;;;;;;5106074;28;20078;-74
2023/10/19 09:46:29;;;;;;;18.70;10.43;;;7.80;99.90;;;;;;5104996;28;20050;-72
2023/10/19 09:48:55;;;;;;;19.08;11.05;;;7.70;99.90;;;;;;5105796;28;20039;-74
2023/10/19 09:51:22;;;;;;;19.40;11.38;;;7.70;99.90;;;;;;5105180;28;20023;-72
2023/10/19 09:54:10;;;;;;;17.48;10.55;;;7.80;99.90;;;;;;5104806;28;20020;-74
2023/10/19 09:56:41;;;;;;;18.77;11.48;;;7.80;99.90;;;;;;5105672;28;20047;-73
2023/10/19 09:59:19;;;;;;;19.65;11.07;;;7.80;99.90;;;;;;5105359;28;20020;-73
2023/10/19 10:02:05;;;;;;;20.50;10.95;;;7.80;99.90;;;;;;5102021;28;20147;-73
2023/10/19 10:04:31;;;;;;;20.75;11.45;;;7.80;99.90;;;;;;5102933;28;20031;-73
2023/10/19 10:06:59;;;;;;;21.70;11.60;;;7.80;99.90;;;;;;5115423;28;20016;-70
2023/10/19 10:09:26;;;;;;;20.02;10.68;;;7.80;99.90;;;;;;5101067;28;20020;-73
2023/10/19 10:11:53;;;;;;;18.75;10.93;;;7.80;99.90;;;;;;5101229;28;20020;-73
2023/10/19 10:14:28;;;;;;;18.50;10.55;;;7.80;99.90;;;;;;5104169;28;20020;-73
2023/10/19 10:17:01;;;;;;;20.55;11.57;;;7.90;99.90;;;;;;5103965;28;20028;-73
2023/10/19 10:19:26;;;;;;;19.42;11.02;;;7.80;99.90;;;;;;5104034;28;20016;-72
2023/10/19 10:22:12;;;;;;;22.38;11.63;;;7.80;99.90;;;;;;5103745;28;20036;-73
2023/10/19 10:24:44;;;;;;;21.23;12.02;;;7.80;99.90;;;;;;5102702;28;20373;-72
2023/10/19 10:27:13;;;;;;;24.15;11.38;;;7.80;99.90;;;;;;5104537;28;20049;-73
2023/10/19 10:30:06;;;;;;;17.30;10.80;;;7.80;99.90;;;;;;5101804;28;20706;-73
2023/10/19 10:32:44;;;;;;;19.70;10.65;;;7.90;99.90;;;;;;5101864;28;20074;-72
2023/10/19 10:35:30;;;;;;;20.27;11.57;;;7.90;99.90;;;;;;5104335;28;20027;-74
2023/10/19 10:37:56;;;;;;;23.52;11.50;;;7.80;99.90;;;;;;5103966;28;20103;-73
2023/10/19 10:40:23;;;;;;;21.50;12.25;;;7.90;99.90;;;;;;5104008;28;20020;-72
2023/10/19 10:42:48;;;;;;;22.10;12.60;;;8.00;99.90;;;;;;5091405;28;20034;-75
2023/10/19 10:45:21;;;;;;;21.80;12.63;;;7.90;99.90;;;;;;5097917;28;20047;-73
2023/10/19 10:47:47;;;;;;;20.83;11.82;;;7.90;99.90;;;;;;5094302;28;20034;-72
2023/10/19 10:50:19;;;;;;;24.23;12.07;;;7.90;99.90;;;;;;5103630;28;20043;-72
2023/10/19 10:52:44;;;;;;;23.90;12.80;;;8.00;99.90;;;;;;5094633;28;20020;-73
2023/10/19 10:55:12;;;;;;;21.15;12.23;;;7.90;99.90;;;;;;5096675;28;20040;-74
2023/10/19 10:57:38;;;;;;;21.48;12.30;;;8.00;99.90;;;;;;5095249;28;20024;-72
2023/10/19 11:00:23;;;;;;;21.00;12.02;;;8.00;99.90;;;;;;5094698;28;20087;-71
2023/10/19 11:03:09;;;;;;;23.42;12.80;;;8.00;99.90;;;;;;5092886;28;20033;-75
2023/10/19 11:05:37;;;;;;;20.38;12.13;;;8.00;99.90;;;;;;5099197;28;20048;-71
2023/10/19 11:08:08;;;;;;;22.27;12.20;;;8.00;99.90;;;;;;5098641;28;20070;-71
2023/10/19 11:10:36;;;;;;;25.58;12.98;;;8.00;99.90;;;;;;5101669;28;20059;-71
2023/10/19 11:13:13;;;;;;;21.00;12.32;;;8.10;99.90;;;;;;5098413;28;20058;-70
2023/10/19 11:15:47;;;;;;;21.33;12.25;;;8.10;99.90;;;;;;5105257;28;20082;-71
2023/10/19 11:18:30;;;;;;;21.15;12.23;;;8.10;99.90;;;;;;5103142;28;20047;-71
2023/10/19 11:20:59;;;;;;;22.15;12.50;;;8.10;99.90;;;;;;5102543;28;20056;-72
2023/10/19 11:23:46;;;;;;;24.95;11.90;;;8.20;99.90;;;;;;5104076;28;20028;-72
2023/10/19 11:26:14;;;;;;;22.20;12.90;;;8.20;99.90;;;;;;5098334;28;20392;-70
2023/10/19 11:28:47;;;;;;;22.63;13.13;;;8.20;99.90;;;;;;5101703;28;20038;-72
2023/10/19 11:31:16;;;;;;;21.07;12.60;;;8.20;99.90;;;;;;5103687;28;20032;-72
2023/10/19 11:33:43;;;;;;;22.40;12.55;;;8.20;99.90;;;;;;5102944;28;20069;-71
2023/10/19 11:36:12;;;;;;;21.95;12.70;;;8.20;99.90;;;;;;5101826;28;20068;-71
2023/10/19 11:38:47;;;;;;;21.27;12.75;;;8.30;99.90;;;;;;5101691;28;20028;-72
2023/10/19 11:41:14;;;;;;;22.38;12.32;;;8.20;99.90;;;;;;5098698;28;20113;-72
2023/10/19 11:43:42;;;;;;;21.90;13.13;;;8.20;99.90;;;;;;5101311;28;20015;-71
2023/10/19 11:46:09;;;;;;;20.92;13.38;;;8.20;99.90;;;;;;5101848;28;20047;-71
2023/10/19 11:48:36;;;;;;;22.60;12.60;;;8.20;99.90;;;;;;5102594;28;20370;-71
2023/10/19 11:51:05;;;;;;;28.88;13.15;;;8.20;99.90;;;;;;5103912;28;20027;-69
2023/10/19 11:53:36;;;;;;;21.73;12.40;;;8.10;99.90;;;;;;5101725;28;20054;-73
2023/10/19 11:56:07;;;;;;;22.17;12.95;;;8.10;99.90;;;;;;5102753;28;20040;-71
2023/10/19 11:58:39;;;;;;;20.63;12.68;;;8.20;99.90;;;;;;5103811;28;20544;-72
2023/10/19 12:01:12;;;;;;;22.35;12.68;;;8.10;99.90;;;;;;5098534;28;20036;-70
2023/10/19 12:03:40;;;;;;;20.15;11.75;;;8.10;99.90;;;;;;5101753;28;20035;-73
2023/10/19 12:06:06;;;;;;;20.67;11.68;;;8.10;99.90;;;;;;5103906;28;20031;-72
2023/10/19 12:08:33;;;;;;;21.45;12.40;;;8.10;99.90;;;;;;5099454;28;20411;-71
2023/10/19 12:11:01;;;;;;;23.60;13.15;;;8.10;99.90;;;;;;5102646;28;20031;-71
2023/10/19 12:13:28;;;;;;;22.10;12.60;;;8.10;99.90;;;;;;5103746;28;20057;-70
2023/10/19 12:15:55;;;;;;;23.30;12.23;;;8.10;99.90;;;;;;5101955;28;20381;-71
2023/10/19 12:18:21;;;;;;;21.67;12.32;;;8.00;99.90;;;;;;5098478;28;20090;-72
2023/10/19 12:20:47;;;;;;;23.70;12.73;;;8.00;99.90;;;;;;5101530;28;20083;-71
2023/10/19 12:23:14;;;;;;;25.50;12.82;;;8.00;99.90;;;;;;5096031;28;20040;-72
2023/10/19 12:25:42;;;;;;;24.20;13.32;;;8.00;99.90;;;;;;5100941;28;20035;-71
2023/10/19 12:28:08;;;;;;;21.80;12.68;;;8.10;99.90;;;;;;5101997;28;20097;-72
2023/10/19 12:30:36;;;;;;;21.48;13.02;;;8.00;99.90;;;;;;5101649;28;20472;-71
2023/10/19 12:33:11;;;;;;;20.70;12.55;;;8.10;99.90;;;;;;5097848;28;20072;-72
2023/10/19 12:35:51;;;;;;;24.13;13.20;;;8.10;99.90;;;;;;5097546;28;20609;-71
2023/10/19 12:38:17;;;;;;;24.15;13.07;;;8.10;99.90;;;;;;5101408;28;20088;-71
2023/10/19 12:40:47;;;;;;;23.17;13.52;;;8.10;99.90;;;;;;5100806;28;20074;-73
2023/10/19 12:43:18;;;;;;;27.90;14.55;;;8.10;99.90;;;;;;5101017;28;20044;-71
2023/10/19 12:45:50;;;;;;;28.83;14.80;;;8.10;99.90;;;;;;5100840;28;20197;-75
2023/10/19 12:48:16;;;;;;;28.92;15.60;;;8.10;99.90;;;;;;5098333;28;20024;-75
2023/10/19 12:50:42;;;;;;;26.45;15.23;;;8.20;99.90;;;;;;5099567;28;20524;-72
2023/10/19 12:53:08;;;;;;;25.83;14.32;;;8.20;99.90;;;;;;5098569;28;20103;-73
2023/10/19 12:55:37;;;;;;;27.33;14.52;;;8.10;99.90;;;;;;5099910;28;20528;-71
2023/10/19 12:58:09;;;;;;;26.15;14.18;;;8.10;99.90;;;;;;5102151;28;20024;-72
2023/10/19 13:00:36;;;;;;;24.77;14.15;;;8.10;99.90;;;;;;5102141;28;20698;-72
2023/10/19 13:03:04;;;;;;;22.55;13.40;;;8.10;99.90;;;;;;5102527;28;20034;-72
2023/10/19 13:05:37;;;;;;;23.88;12.82;;;8.10;99.90;;;;;;5098527;28;20027;-76
2023/10/19 13:08:09;;;;;;;23.48;13.32;;;8.00;99.90;;;;;;5102941;28;20025;-72
2023/10/19 13:10:41;;;;;;;22.77;13.50;;;8.00;99.90;;;;;;5101553;28;20055;-71